Puerto Banus, Marbella

>

This is an optional block (switch it off / on) in the settings - file ($SITE['banners'] = false;)

You can display ads, any other important text or photo’s using text / html or PHP code.

You can place one or more at the top and or bottom and it can all be different for content / size .



Meteosat more information blitzortung!


Radar lluvias  rain snow radar


Visita nuestra red de sitios de meteo:

Documentation for the template used

MeteoibericaRed estaciones Meteorologicas

MeteoclimaticRed estaciones Meteorologicas



Viento Desde: 19-04-2018 23:00 Hasta: 21-04-2018 04:59 Advertencias para: Viento Nivel: Amarillo info button

Pagina Historial Weather Underground texto

Diario Resumen January 4, 2018 Unidades:  impérial    Métrico   Tanto
« Anterior Dia
Siguiente Dia »
Diario Semana Mensual Anual Personalizada
  Maxima: Minima: Media:
Temperatura: TemperatureC °F 11.2 °F 14.3 °F
Punto de rocío: DewpointC °F 7.4 °F 10.5 °F
Humedad: Humidity % 62 % 78 %
Velocidad del Viento: WindSpeedKMH mph 0.0 mph 5.6 mph
Ráfagas de viento: WindSpeedGustKMH mph - -
Viento:- - SW
Pression baro: PressurehPa in 1022.6 in -
Précipitaciones: 0.0 in    
Historical Graphs
 
 
Datos de tabla para January 4, 2018
Tiempo Temperatura Punto de rocío Pression baro Viento Velocidad del Viento Ráfagas de viento Humedad Las precipitaciones Rate ( Hora )
TemperatureC °F DewpointC °F PressurehPa in Calm     Humidity % HourlyPrecipMM in
00:03 15.9 °F 9.8 °F 1028.3 in North 4.8 mph 4.8 mph 67 % 0.0 in
00:04 15.8 °F 9.7 °F 1028.3 in North 5.6 mph 5.6 mph 67 % 0.0 in
00:09 15.7 °F 9.6 °F 1028.3 in North 9.3 mph 9.3 mph 67 % 0.0 in
00:11 15.7 °F 9.6 °F 1028.3 in North 13.0 mph 13.0 mph 67 % 0.0 in
00:16 15.6 °F 9.4 °F 1028.3 in North 9.3 mph 9.3 mph 67 % 0.0 in
00:20 15.5 °F 9.4 °F 1028.0 in North 9.3 mph 9.3 mph 67 % 0.0 in
00:21 15.5 °F 9.4 °F 1028.0 in North 9.3 mph 9.3 mph 67 % 0.0 in
00:26 15.4 °F 9.3 °F 1028.0 in NNW 5.6 mph 5.6 mph 67 % 0.0 in
00:27 15.4 °F 9.3 °F 1028.0 in NNW 5.6 mph 5.6 mph 67 % 0.0 in
00:32 15.3 °F 9.2 °F 1028.0 in NNW 5.6 mph 5.6 mph 67 % 0.0 in
00:33 15.3 °F 9.2 °F 1028.0 in NNW 5.6 mph 5.6 mph 67 % 0.0 in
00:37 15.3 °F 9.2 °F 1028.0 in North 7.4 mph 7.4 mph 67 % 0.0 in
00:42 15.2 °F 9.1 °F 1027.7 in NNW 5.6 mph 5.6 mph 67 % 0.0 in
00:43 15.2 °F 9.1 °F 1027.7 in NNW 5.6 mph 5.6 mph 67 % 0.0 in
00:45 15.2 °F 8.9 °F 1027.7 in North 3.2 mph 8.0 mph 66 % 0.0 in
00:49 15.4 °F 8.4 °F 1027.7 in NNW 6.4 mph 6.4 mph 63 % 0.0 in
00:54 15.4 °F 8.2 °F 1027.7 in NNW 7.4 mph 7.4 mph 62 % 0.0 in
00:59 15.3 °F 8.1 °F 1027.7 in NNW 7.4 mph 7.4 mph 62 % 0.0 in
01:01 15.3 °F 8.3 °F 1027.7 in NNW 9.3 mph 9.3 mph 63 % 0.0 in
01:06 15.0 °F 8.2 °F 1027.7 in North 8.0 mph 8.0 mph 64 % 0.0 in
01:07 15.0 °F 8.2 °F 1027.7 in North 9.7 mph 9.7 mph 64 % 0.0 in
01:13 15.0 °F 8.0 °F 1027.7 in NNW 5.6 mph 5.6 mph 63 % 0.0 in
01:15 15.1 °F 7.8 °F 1027.7 in NNW 3.7 mph 3.7 mph 62 % 0.0 in
01:19 15.1 °F 8.1 °F 1027.7 in Calm     63 % 0.0 in
01:24 15.1 °F 8.1 °F 1027.7 in NNW 1.9 mph 1.9 mph 63 % 0.0 in
01:27 15.1 °F 7.8 °F 1027.7 in NNW 1.9 mph 1.9 mph 62 % 0.0 in
01:31 15.1 °F 8.3 °F 1027.7 in NNW 5.6 mph 5.6 mph 64 % 0.0 in
01:32 15.1 °F 8.5 °F 1027.7 in NNW 5.6 mph 5.6 mph 65 % 0.0 in
01:34 15.0 °F 8.4 °F 1027.7 in NNW 3.7 mph 3.7 mph 65 % 0.0 in
01:38 14.8 °F 8.1 °F 1027.3 in NNW 5.6 mph 5.6 mph 64 % 0.0 in
01:39 14.8 °F 8.1 °F 1027.3 in NNW 5.6 mph 5.6 mph 64 % 0.0 in
01:41 14.8 °F 8.1 °F 1027.3 in NNW 5.6 mph 5.6 mph 64 % 0.0 in
01:44 14.7 °F 8.0 °F 1027.3 in NNW 5.6 mph 5.6 mph 64 % 0.0 in
01:48 14.7 °F 7.9 °F 1027.3 in NNW 5.6 mph 5.6 mph 64 % 0.0 in
01:49 14.7 °F 8.2 °F 1027.3 in NNW 5.6 mph 5.6 mph 65 % 0.0 in
01:54 14.7 °F 8.6 °F 1027.3 in NNW 3.7 mph 3.7 mph 67 % 0.0 in
01:55 14.7 °F 8.8 °F 1027.3 in Calm     68 % 0.0 in
02:00 14.7 °F 8.8 °F 1027.3 in NNW 1.6 mph 4.8 mph 68 % 0.0 in
02:01 14.6 °F 8.7 °F 1027.3 in NNW 5.6 mph 5.6 mph 68 % 0.0 in
02:06 14.4 °F 8.8 °F 1027.0 in NNW 6.4 mph 6.4 mph 69 % 0.0 in
02:08 14.3 °F 8.5 °F 1027.3 in NNW 5.6 mph 5.6 mph 68 % 0.0 in
02:13 14.2 °F 8.2 °F 1027.0 in NNW 5.6 mph 5.6 mph 67 % 0.0 in
02:16 14.1 °F 8.1 °F 1027.0 in NNW 7.4 mph 7.4 mph 67 % 0.0 in
02:19 13.9 °F 7.9 °F 1027.0 in North 7.4 mph 7.4 mph 67 % 0.0 in
02:20 13.8 °F 7.8 °F 1027.0 in North 9.3 mph 9.3 mph 67 % 0.0 in
02:25 13.7 °F 7.7 °F 1027.0 in North 7.4 mph 7.4 mph 67 % 0.0 in
02:26 13.7 °F 7.7 °F 1027.0 in North 7.4 mph 7.4 mph 67 % 0.0 in
02:31 13.7 °F 7.7 °F 1027.0 in North 8.0 mph 8.0 mph 67 % 0.0 in
02:33 13.6 °F 7.6 °F 1027.0 in North 8.0 mph 8.0 mph 67 % 0.0 in
02:36 13.3 °F 7.5 °F 1027.0 in North 7.4 mph 7.4 mph 68 % 0.0 in
02:38 13.2 °F 7.4 °F 1027.0 in North 8.0 mph 8.0 mph 68 % 0.0 in
02:41 13.1 °F 7.5 °F 1027.0 in North 7.4 mph 7.4 mph 69 % 0.0 in
02:46 13.1 °F 7.8 °F 1027.0 in North 9.3 mph 9.3 mph 70 % 0.0 in
02:47 13.1 °F 7.8 °F 1027.0 in North 9.7 mph 9.7 mph 70 % 0.0 in
02:52 13.1 °F 7.7 °F 1027.0 in NNW 11.1 mph 11.1 mph 70 % 0.0 in
02:58 13.1 °F 7.9 °F 1026.6 in NNW 8.0 mph 8.0 mph 71 % 0.0 in
03:02 13.2 °F 8.1 °F 1026.6 in NNW 9.3 mph 9.3 mph 71 % 0.0 in
03:04 13.3 °F 8.1 °F 1026.6 in NNW 5.6 mph 5.6 mph 71 % 0.0 in
03:09 13.3 °F 8.2 °F 1027.0 in Calm     71 % 0.0 in
03:11 13.3 °F 7.9 °F 1027.0 in NNW 3.7 mph 3.7 mph 70 % 0.0 in
03:16 13.3 °F 7.9 °F 1027.0 in North 8.0 mph 8.0 mph 70 % 0.0 in
03:19 13.1 °F 7.7 °F 1027.0 in North 3.7 mph   70 % 0.0 in
03:24 12.8 °F 7.4 °F 1027.0 in North 9.3 mph 9.3 mph 70 % 0.0 in
03:25 12.8 °F 7.4 °F 1027.0 in North 8.0 mph 9.7 mph 70 % 0.0 in
03:29 12.4 °F 7.6 °F 1027.0 in North 6.4 mph 6.6 mph 72 % 0.0 in
03:34 12.4 °F 7.7 °F 1027.0 in North 8.0 mph 8.0 mph 73 % 0.0 in
03:35 12.4 °F 7.7 °F 1027.0 in North 7.4 mph 7.4 mph 73 % 0.0 in
03:40 12.7 °F 8.2 °F 1027.0 in NNW 9.3 mph 9.3 mph 74 % 0.0 in
03:45 12.8 °F 8.1 °F 1027.0 in NNW 3.7 mph 3.7 mph 73 % 0.0 in
03:46 12.8 °F 8.1 °F 1027.0 in NNW 5.6 mph 5.6 mph 73 % 0.0 in
03:51 12.8 °F 8.1 °F 1027.0 in NNW 6.4 mph 6.4 mph 73 % 0.0 in
03:53 12.7 °F 8.0 °F 1027.0 in North 8.0 mph 8.0 mph 73 % 0.0 in
03:56 12.8 °F 8.1 °F 1027.0 in NNW 9.3 mph 9.3 mph 73 % 0.0 in
03:59 12.8 °F 8.1 °F 1027.0 in NNW 5.6 mph 5.6 mph 73 % 0.0 in
04:04 12.7 °F 7.7 °F 1027.0 in NNW 5.6 mph 5.6 mph 72 % 0.0 in
04:09 12.6 °F 8.1 °F 1027.0 in NNW 5.6 mph 5.6 mph 74 % 0.0 in
04:11 12.7 °F 8.2 °F 1027.0 in NNW 3.7 mph 3.7 mph 74 % 0.0 in
04:16 12.8 °F 8.3 °F 1027.0 in NNW 5.6 mph 5.6 mph 74 % 0.0 in
04:18 12.9 °F 8.6 °F 1027.0 in NNW 5.6 mph 5.6 mph 75 % 0.0 in
04:21 12.9 °F 8.4 °F 1027.0 in NNW 3.7 mph 3.7 mph 74 % 0.0 in
04:25 13.1 °F 8.5 °F 1027.0 in NNW 3.7 mph 3.7 mph 74 % 0.0 in
04:30 13.2 °F 8.6 °F 1027.0 in NNW 3.7 mph 3.7 mph 74 % 0.0 in
04:31 13.2 °F 8.6 °F 1027.0 in Calm     74 % 0.0 in
04:36 13.1 °F 8.3 °F 1027.0 in NNW 1.6 mph 1.6 mph 73 % 0.0 in
04:37 13.0 °F 8.3 °F 1027.0 in NNW 3.2 mph 3.2 mph 73 % 0.0 in
04:42 12.7 °F 7.9 °F 1027.0 in NNW 7.4 mph 7.4 mph 73 % 0.0 in
04:43 12.6 °F 7.9 °F 1027.0 in NNW 5.6 mph 6.0 mph 73 % 0.0 in
04:45 12.6 °F 7.8 °F 1027.0 in North 5.6 mph 5.6 mph 73 % 0.0 in
04:49 12.4 °F 7.9 °F 1027.0 in North 5.6 mph 5.6 mph 74 % 0.0 in
04:51 12.4 °F 7.9 °F 1027.0 in North 4.8 mph 4.8 mph 74 % 0.0 in
04:56 12.4 °F 8.1 °F 1027.0 in North 5.6 mph 5.6 mph 75 % 0.0 in
05:00 12.4 °F 8.1 °F 1027.0 in Calm     75 % 0.0 in
05:01 12.4 °F 8.1 °F 1026.6 in North 3.7 mph 3.7 mph 75 % 0.0 in
05:07 12.6 °F 8.3 °F 1026.6 in North 5.6 mph 5.6 mph 75 % 0.0 in
05:08 12.6 °F 8.3 °F 1026.6 in NNW 5.6 mph 5.6 mph 75 % 0.0 in
05:12 12.6 °F 8.3 °F 1027.0 in NNW 1.9 mph   75 % 0.0 in
05:13 12.6 °F 8.3 °F 1027.0 in Calm   0.2 mph 75 % 0.0 in
05:14 12.6 °F 8.3 °F 1027.0 in Calm   0.2 mph 75 % 0.0 in
05:15 12.6 °F 8.3 °F 1027.0 in Calm     75 % 0.0 in
05:16 12.7 °F 8.3 °F 1027.0 in Calm   0.5 mph 75 % 0.0 in
05:17 12.7 °F 8.3 °F 1027.0 in Calm   0.5 mph 75 % 0.0 in
05:18 12.7 °F 8.3 °F 1027.0 in Calm     75 % 0.0 in
05:19 12.7 °F 8.3 °F 1026.6 in Calm     75 % 0.0 in
05:24 12.8 °F 8.7 °F 1026.6 in NNW 5.6 mph 5.6 mph 76 % 0.0 in
05:29 13.0 °F 8.9 °F 1026.6 in NNW 5.6 mph 5.6 mph 76 % 0.0 in
05:30 13.0 °F 8.9 °F 1026.6 in NNW 7.4 mph 7.4 mph 76 % 0.0 in
05:35 12.6 °F 8.2 °F 1026.6 in North 9.3 mph 9.3 mph 75 % 0.0 in
05:38 12.2 °F 7.9 °F 1026.6 in North 8.0 mph 8.0 mph 75 % 0.0 in
05:39 12.1 °F 7.8 °F 1026.6 in North 8.0 mph 8.0 mph 75 % 0.0 in
05:43 12.1 °F 7.9 °F 1026.6 in NNW 3.7 mph 3.7 mph 76 % 0.0 in
05:44 12.1 °F 7.9 °F 1026.6 in NNW 4.8 mph 4.8 mph 76 % 0.0 in
05:46 12.1 °F 8.2 °F 1026.6 in North 5.6 mph 5.6 mph 77 % 0.0 in
05:48 12.1 °F 8.2 °F 1026.6 in North 5.6 mph 5.6 mph 77 % 0.0 in
05:49 12.1 °F 8.2 °F 1026.6 in North 5.6 mph 5.6 mph 77 % 0.0 in
05:51 12.1 °F 8.2 °F 1026.6 in NNW 6.4 mph 6.4 mph 77 % 0.0 in
05:52 12.1 °F 8.2 °F 1026.6 in NNW 7.4 mph 7.4 mph 77 % 0.0 in
05:56 12.1 °F 8.2 °F 1026.6 in North 7.4 mph 7.4 mph 77 % 0.0 in
05:57 12.1 °F 8.2 °F 1026.6 in North 5.6 mph 5.6 mph 77 % 0.0 in
06:02 12.3 °F 8.6 °F 1026.6 in Calm     78 % 0.0 in
06:07 12.5 °F 8.6 °F 1026.6 in North 5.6 mph 5.6 mph 77 % 0.0 in
06:12 12.6 °F 8.6 °F 1026.6 in North 5.6 mph 5.6 mph 77 % 0.0 in
06:17 12.6 °F 8.7 °F 1026.6 in NNW 5.6 mph 5.6 mph 77 % 0.0 in
06:25 11.5 °F 7.6 °F 1026.6 in North 8.0 mph 8.0 mph 77 % 0.0 in
06:29 11.2 °F 7.7 °F 1026.6 in North 7.4 mph 7.4 mph 79 % 0.0 in
06:30 11.2 °F 7.7 °F 1026.6 in North 7.4 mph 7.4 mph 79 % 0.0 in
06:32 11.3 °F 7.8 °F 1026.6 in North 5.6 mph 5.6 mph 79 % 0.0 in
06:33 11.3 °F 7.9 °F 1026.6 in North 7.4 mph 7.4 mph 80 % 0.0 in
06:37 11.3 °F 7.9 °F 1026.6 in NNW 5.6 mph 5.6 mph 80 % 0.0 in
06:41 11.4 °F 8.3 °F 1026.6 in NNW 7.4 mph 7.4 mph 81 % 0.0 in
06:42 11.5 °F 8.3 °F 1026.6 in NNW 5.6 mph 5.6 mph 81 % 0.0 in
06:47 11.7 °F 8.6 °F 1026.6 in NNW 5.6 mph 5.6 mph 81 % 0.0 in
06:51 12.0 °F 8.8 °F 1026.6 in NNW 5.6 mph 5.6 mph 81 % 0.0 in
06:55 12.2 °F 8.6 °F 1026.6 in NNW 8.0 mph 8.0 mph 79 % 0.0 in
06:59 12.2 °F 8.6 °F 1026.6 in NNW 5.6 mph 5.6 mph 79 % 0.0 in
07:01 12.2 °F 8.6 °F 1026.6 in NNW 5.6 mph 5.6 mph 79 % 0.0 in
07:03 12.2 °F 8.6 °F 1026.6 in NNW 3.7 mph 3.7 mph 79 % 0.0 in
07:08 12.2 °F 8.4 °F 1026.6 in NNW 5.6 mph 5.6 mph 78 % 0.0 in
07:13 12.0 °F 8.3 °F 1026.6 in North 5.6 mph 5.6 mph 78 % 0.0 in
07:14 11.8 °F 8.1 °F 1026.6 in North 5.6 mph 5.6 mph 78 % 0.0 in
07:19 11.7 °F 8.2 °F 1026.6 in Calm     79 % 0.0 in
07:20 11.7 °F 8.2 °F 1026.6 in Calm     79 % 0.0 in
07:25 11.6 °F 8.1 °F 1026.6 in North 1.9 mph   79 % 0.0 in
07:27 11.6 °F 8.1 °F 1026.6 in North 3.7 mph 3.7 mph 79 % 0.0 in
07:28 11.6 °F 8.1 °F 1026.6 in North 3.7 mph 3.7 mph 79 % 0.0 in
07:31 11.7 °F 8.2 °F 1026.6 in North 5.6 mph 5.6 mph 79 % 0.0 in
07:33 11.7 °F 8.2 °F 1026.6 in North 5.6 mph 5.6 mph 79 % 0.0 in
07:34 11.7 °F 8.4 °F 1026.6 in North 5.6 mph 5.6 mph 80 % 0.0 in
07:39 11.9 °F 8.6 °F 1026.6 in North 1.9 mph 1.9 mph 80 % 0.0 in
07:40 11.9 °F 8.6 °F 1026.6 in North 3.2 mph 3.2 mph 80 % 0.0 in
07:41 11.9 °F 8.3 °F 1026.6 in North 3.2 mph 3.4 mph 79 % 0.0 in
07:45 11.8 °F 8.5 °F 1026.6 in North 5.6 mph 5.6 mph 80 % 0.0 in
07:46 11.8 °F 8.5 °F 1026.6 in North 4.8 mph 4.8 mph 80 % 0.0 in
07:47 11.8 °F 8.4 °F 1026.6 in North 5.6 mph 5.6 mph 80 % 0.0 in
07:52 11.7 °F 8.3 °F 1027.0 in North 8.0 mph 8.0 mph 80 % 0.0 in
07:53 11.6 °F 8.3 °F 1027.0 in North 7.4 mph 7.4 mph 80 % 0.0 in
07:54 11.6 °F 8.2 °F 1027.0 in North 8.0 mph 8.0 mph 80 % 0.0 in
07:58 11.5 °F 8.3 °F 1027.0 in North 6.4 mph 6.4 mph 81 % 0.0 in
08:00 11.5 °F 8.3 °F 1027.0 in North 8.0 mph 8.0 mph 81 % 0.0 in
08:05 11.4 °F 8.3 °F 1027.0 in North 5.6 mph 5.6 mph 81 % 0.0 in
08:07 11.4 °F 8.3 °F 1027.0 in North 1.9 mph   81 % 0.0 in
08:12 11.6 °F 8.7 °F 1027.0 in North 5.6 mph 5.6 mph 82 % 0.0 in
08:13 11.7 °F 8.7 °F 1027.0 in North 6.4 mph 6.4 mph 82 % 0.0 in
08:15 11.7 °F 8.7 °F 1027.0 in North 5.6 mph 5.6 mph 82 % 0.0 in
08:17 11.7 °F 8.5 °F 1027.0 in North 5.6 mph 5.6 mph 81 % 0.0 in
08:19 11.7 °F 8.7 °F 1027.0 in North 5.6 mph 5.6 mph 82 % 0.0 in
08:21 11.7 °F 8.6 °F 1027.0 in North 3.7 mph 3.7 mph 81 % 0.0 in
08:26 11.8 °F 8.6 °F 1027.0 in North 3.7 mph 3.7 mph 81 % 0.0 in
08:31 11.8 °F 8.6 °F 1027.0 in North 5.6 mph 5.6 mph 81 % 0.0 in
08:32 11.8 °F 8.7 °F 1027.0 in North 3.7 mph 3.7 mph 81 % 0.0 in
08:37 11.8 °F 8.7 °F 1027.0 in North 3.7 mph 3.7 mph 81 % 0.0 in
08:39 11.8 °F 8.7 °F 1027.0 in North 3.7 mph 3.7 mph 81 % 0.0 in
08:42 11.8 °F 8.5 °F 1027.0 in North 3.2 mph 3.2 mph 80 % 0.0 in
08:44 11.8 °F 8.4 °F 1027.0 in North 3.7 mph 3.7 mph 80 % 0.0 in
08:46 11.8 °F 8.4 °F 1027.0 in North 3.7 mph 3.7 mph 80 % 0.0 in
08:49 11.8 °F 8.4 °F 1027.0 in North 3.7 mph 3.7 mph 80 % 0.0 in
08:53 11.8 °F 8.4 °F 1027.0 in Calm     80 % 0.0 in
08:56 11.8 °F 8.5 °F 1027.0 in Calm     80 % 0.0 in
09:01 11.9 °F 8.6 °F 1027.0 in North 3.7 mph 3.7 mph 80 % 0.0 in
09:02 11.9 °F 8.6 °F 1027.0 in North 3.7 mph 3.7 mph 80 % 0.0 in
09:04 12.0 °F 8.7 °F 1027.0 in North 3.7 mph 3.7 mph 80 % 0.0 in
09:06 12.1 °F 8.8 °F 1027.0 in North 1.9 mph 1.9 mph 80 % 0.0 in
09:08 12.2 °F 8.8 °F 1027.0 in North 1.9 mph   80 % 0.0 in
09:13 12.4 °F 9.1 °F 1027.0 in North 3.7 mph 3.7 mph 80 % 0.0 in
09:18 12.6 °F 9.2 °F 1027.0 in North 1.9 mph 1.9 mph 80 % 0.0 in
09:19 12.6 °F 9.2 °F 1027.0 in North 1.9 mph 1.9 mph 80 % 0.0 in
09:23 12.8 °F 9.4 °F 1027.0 in North 3.7 mph 3.7 mph 80 % 0.0 in
09:24 12.8 °F 9.4 °F 1027.0 in North 1.9 mph 1.9 mph 80 % 0.0 in
09:26 12.8 °F 9.3 °F 1027.0 in Calm     79 % 0.0 in
09:27 12.8 °F 9.3 °F 1027.0 in Calm     79 % 0.0 in
09:30 12.9 °F 9.3 °F 1027.0 in Calm     79 % 0.0 in
09:33 12.9 °F 9.4 °F 1027.0 in North 3.7 mph 3.7 mph 79 % 0.0 in
09:36 13.1 °F 9.6 °F 1027.0 in North 3.7 mph 3.7 mph 79 % 0.0 in
09:38 13.2 °F 9.4 °F 1027.0 in Calm     78 % 0.0 in
09:42 13.2 °F 9.4 °F 1027.0 in North 5.6 mph 5.6 mph 78 % 0.0 in
09:47 13.0 °F 9.1 °F 1027.0 in North 5.6 mph 5.6 mph 77 % 0.0 in
09:48 13.0 °F 9.1 °F 1027.0 in North 5.6 mph 5.6 mph 77 % 0.0 in
09:52 12.9 °F 9.0 °F 1027.0 in North 3.7 mph 3.7 mph 77 % 0.0 in
09:55 13.0 °F 9.1 °F 1027.0 in North 3.7 mph 3.7 mph 77 % 0.0 in
09:59 13.1 °F 9.1 °F 1027.3 in North 3.7 mph 3.7 mph 77 % 0.0 in
10:01 13.2 °F 9.2 °F 1027.3 in North 3.7 mph 3.7 mph 77 % 0.0 in
10:06 13.3 °F 9.1 °F 1027.3 in Calm     76 % 0.0 in
10:11 13.5 °F 9.3 °F 1027.3 in Calm     76 % 0.0 in
10:16 13.8 °F 9.7 °F 1027.3 in Calm     76 % 0.0 in
10:20 14.1 °F 9.8 °F 1027.3 in Calm     75 % 0.0 in
10:21 14.3 °F 9.9 °F 1027.3 in Calm     75 % 0.0 in
10:25 14.6 °F 10.0 °F 1027.3 in Calm     74 % 0.0 in
10:30 14.7 °F 10.2 °F 1027.3 in Calm   1.6 mph 74 % 0.0 in
10:31 14.9 °F 10.5 °F 1027.3 in North 1.9 mph 1.9 mph 75 % 0.0 in
10:36 15.1 °F 10.7 °F 1027.3 in North 3.7 mph 3.7 mph 75 % 0.0 in
10:37 15.1 °F 10.7 °F 1027.3 in North 1.9 mph 1.9 mph 75 % 0.0 in
10:42 15.2 °F 10.8 °F 1027.3 in North 3.7 mph 3.7 mph 75 % 0.0 in
10:43 15.2 °F 11.0 °F 1027.3 in North 3.7 mph 3.7 mph 76 % 0.0 in
10:48 15.1 °F 10.8 °F 1027.3 in North 5.6 mph 5.6 mph 76 % 0.0 in
10:50 15.1 °F 11.1 °F 1027.3 in North 5.6 mph 5.6 mph 77 % 0.0 in
10:51 15.1 °F 11.1 °F 1027.3 in North 5.6 mph 5.6 mph 77 % 0.0 in
10:57 14.9 °F 11.2 °F 1027.7 in North 5.6 mph 5.6 mph 78 % 0.0 in
11:00 14.9 °F 11.3 °F 1027.7 in NNE 5.6 mph 5.6 mph 79 % 0.0 in
11:05 14.8 °F 11.3 °F 1027.7 in ENE 5.6 mph 5.8 mph 80 % 0.0 in
11:10 14.7 °F 11.4 °F 1027.7 in East 9.7 mph 9.7 mph 81 % 0.0 in
11:12 14.6 °F 11.4 °F 1027.7 in East 9.3 mph 9.3 mph 81 % 0.0 in
11:17 14.7 °F 11.6 °F 1027.7 in East 11.3 mph 11.3 mph 82 % 0.0 in
11:18 14.7 °F 11.6 °F 1027.7 in East 11.1 mph 11.1 mph 82 % 0.0 in
11:23 14.7 °F 11.8 °F 1027.7 in East 9.3 mph 9.3 mph 83 % 0.0 in
11:28 14.6 °F 11.6 °F 1027.7 in East 7.4 mph 7.4 mph 82 % 0.0 in
11:29 14.6 °F 11.6 °F 1027.7 in East 7.4 mph 7.4 mph 82 % 0.0 in
11:32 14.6 °F 11.6 °F 1027.7 in East 5.6 mph 5.6 mph 82 % 0.0 in
11:34 14.7 °F 11.6 °F 1027.7 in East 7.4 mph 7.4 mph 82 % 0.0 in
11:39 14.8 °F 11.7 °F 1027.7 in East 7.4 mph 7.4 mph 82 % 0.0 in
11:41 14.8 °F 11.8 °F 1027.3 in East 8.0 mph 8.0 mph 82 % 0.0 in
11:44 14.9 °F 11.9 °F 1027.3 in East 5.6 mph 5.6 mph 82 % 0.0 in
11:46 15.1 °F 12.0 °F 1027.3 in East 7.4 mph 7.4 mph 82 % 0.0 in
11:47 15.1 °F 12.0 °F 1027.3 in East 5.6 mph 5.6 mph 82 % 0.0 in
11:51 15.1 °F 11.8 °F 1027.3 in East 3.7 mph 3.7 mph 81 % 0.0 in
11:52 15.0 °F 11.8 °F 1027.3 in East 3.7 mph 3.7 mph 81 % 0.0 in
11:57 15.1 °F 11.8 °F 1027.3 in East 3.7 mph 3.7 mph 81 % 0.0 in
11:58 15.1 °F 11.8 °F 1027.3 in East 5.6 mph 5.6 mph 81 % 0.0 in
12:03 14.9 °F 11.7 °F 1027.0 in East 5.6 mph 5.6 mph 81 % 0.0 in
12:06 14.9 °F 11.7 °F 1027.0 in East 5.6 mph 5.6 mph 81 % 0.0 in
12:11 14.9 °F 11.7 °F 1027.0 in East 5.6 mph 5.6 mph 81 % 0.0 in
12:12 14.9 °F 11.7 °F 1027.0 in East 7.4 mph 7.4 mph 81 % 0.0 in
12:18 14.9 °F 11.7 °F 1027.0 in East 5.6 mph 5.6 mph 81 % 0.0 in
12:19 14.9 °F 11.9 °F 1027.0 in East 3.7 mph 3.7 mph 82 % 0.0 in
12:24 15.0 °F 11.9 °F 1027.0 in East 5.6 mph 5.6 mph 82 % 0.0 in
12:29 15.0 °F 11.9 °F 1026.6 in East 3.7 mph 3.7 mph 82 % 0.0 in
12:30 15.0 °F 11.9 °F 1026.6 in East 1.6 mph 4.8 mph 82 % 0.0 in
12:35 15.1 °F 12.1 °F 1026.6 in East 3.2 mph 4.8 mph 82 % 0.0 in
12:37 15.2 °F 12.1 °F 1026.6 in East 5.6 mph 5.6 mph 82 % 0.0 in
12:42 15.2 °F 12.2 °F 1026.3 in East 5.6 mph 5.6 mph 82 % 0.0 in
12:44 15.2 °F 12.1 °F 1026.3 in East 7.4 mph 7.4 mph 82 % 0.0 in
12:47 15.1 °F 11.9 °F 1026.3 in East 5.6 mph 5.6 mph 81 % 0.0 in
12:51 15.1 °F 11.8 °F 1026.3 in East 5.6 mph 5.6 mph 81 % 0.0 in
12:53 15.1 °F 11.8 °F 1026.3 in East 8.0 mph 8.0 mph 81 % 0.0 in
12:57 15.1 °F 11.8 °F 1026.0 in ENE 6.4 mph 6.4 mph 81 % 0.0 in
12:58 15.1 °F 11.8 °F 1026.0 in ENE 5.6 mph 5.6 mph 81 % 0.0 in
13:03 15.1 °F 11.8 °F 1026.0 in ENE 5.6 mph 5.6 mph 81 % 0.0 in
13:08 15.2 °F 12.1 °F 1025.6 in ENE 3.7 mph 3.7 mph 82 % 0.0 in
13:10 15.2 °F 12.0 °F 1025.6 in ENE 3.7 mph 3.7 mph 81 % 0.0 in
13:15 15.2 °F 11.9 °F 1025.6 in ENE 5.6 mph 5.6 mph 81 % 0.0 in
13:20 15.2 °F 12.2 °F 1025.6 in ENE 5.6 mph 5.6 mph 82 % 0.0 in
13:21 15.2 °F 12.2 °F 1025.6 in ENE 5.6 mph 5.6 mph 82 % 0.0 in
13:22 15.2 °F 12.2 °F 1025.6 in ENE 5.6 mph 5.6 mph 82 % 0.0 in
13:27 15.3 °F 12.2 °F 1025.3 in ENE 5.6 mph 5.6 mph 82 % 0.0 in
13:28 15.3 °F 12.2 °F 1025.3 in ENE 5.6 mph 5.6 mph 82 % 0.0 in
13:33 15.3 °F 12.2 °F 1025.3 in ENE 5.6 mph 5.6 mph 82 % 0.0 in
13:35 15.3 °F 12.3 °F 1025.3 in ENE 5.6 mph 5.6 mph 82 % 0.0 in
13:36 15.3 °F 12.3 °F 1025.3 in ENE 5.6 mph 5.6 mph 82 % 0.0 in
13:41 15.3 °F 12.4 °F 1024.9 in ENE 5.6 mph 5.6 mph 83 % 0.0 in
13:45 15.4 °F 12.5 °F 1024.9 in ENE 5.6 mph 5.6 mph 83 % 0.0 in
13:47 15.4 °F 12.6 °F 1024.9 in ENE 5.6 mph 5.6 mph 83 % 0.0 in
13:50 15.5 °F 12.6 °F 1024.9 in ENE 3.7 mph 3.7 mph 83 % 0.0 in
13:51 15.5 °F 12.6 °F 1024.9 in ENE 3.7 mph 3.7 mph 83 % 0.0 in
13:53 15.5 °F 12.6 °F 1024.9 in ENE 3.7 mph 3.7 mph 83 % 0.0 in
13:58 15.7 °F 12.8 °F 1024.9 in ENE 1.9 mph   83 % 0.0 in
13:59 15.7 °F 12.8 °F 1024.9 in ENE 1.6 mph 1.6 mph 83 % 0.0 in
14:04 15.7 °F 12.8 °F 1024.9 in ENE 5.6 mph 5.6 mph 83 % 0.0 in
14:09 15.6 °F 12.7 °F 1024.6 in ENE 5.6 mph 5.6 mph 83 % 0.0 in
14:10 15.6 °F 12.7 °F 1024.6 in ENE 5.6 mph 5.6 mph 83 % 0.0 in
14:12 15.6 °F 12.7 °F 1024.6 in ENE 3.7 mph 3.7 mph 83 % 0.0 in
14:17 15.6 °F 12.6 °F 1024.6 in ENE 5.6 mph 5.6 mph 82 % 0.0 in
14:22 15.7 °F 12.6 °F 1024.6 in ENE 5.6 mph 5.6 mph 82 % 0.0 in
14:27 15.7 °F 12.4 °F 1024.3 in ENE 5.6 mph 5.6 mph 81 % 0.0 in
14:28 15.7 °F 12.4 °F 1024.3 in ENE 5.6 mph 5.6 mph 81 % 0.0 in
14:30 15.7 °F 12.4 °F 1024.3 in ENE 5.6 mph 5.6 mph 81 % 0.0 in
14:35 15.7 °F 12.7 °F 1024.3 in ENE 5.6 mph 5.6 mph 82 % 0.0 in
14:40 15.8 °F 12.7 °F 1024.3 in ENE 5.6 mph 5.6 mph 82 % 0.0 in
14:41 15.7 °F 12.7 °F 1024.3 in ENE 5.6 mph 5.6 mph 82 % 0.0 in
14:46 15.7 °F 12.7 °F 1024.3 in ENE 5.6 mph 5.6 mph 82 % 0.0 in
14:47 15.7 °F 12.7 °F 1024.3 in ENE 5.6 mph 5.6 mph 82 % 0.0 in
14:52 15.8 °F 12.7 °F 1024.3 in ENE 5.6 mph 5.6 mph 82 % 0.0 in
14:54 15.8 °F 12.9 °F 1024.3 in ENE 5.6 mph 5.6 mph 83 % 0.0 in
14:58 15.7 °F 12.7 °F 1023.9 in ENE 5.6 mph 5.6 mph 82 % 0.0 in
15:03 15.9 °F 13.0 °F 1023.9 in ENE 3.7 mph 3.7 mph 83 % 0.0 in
15:04 15.9 °F 13.1 °F 1023.9 in ENE 3.7 mph 3.7 mph 83 % 0.0 in
15:09 15.9 °F 12.8 °F 1023.9 in ENE 5.6 mph 5.6 mph 82 % 0.0 in
15:14 15.9 °F 12.9 °F 1023.9 in ENE 4.8 mph 4.8 mph 82 % 0.0 in
15:15 15.9 °F 12.9 °F 1023.9 in ENE 5.6 mph 5.6 mph 82 % 0.0 in
15:20 15.9 °F 12.9 °F 1023.6 in ENE 3.7 mph 3.7 mph 82 % 0.0 in
15:24 16.1 °F 13.1 °F 1023.6 in Calm     82 % 0.0 in
15:25 16.2 °F 13.1 °F 1023.6 in ENE 1.9 mph 1.9 mph 82 % 0.0 in
15:28 16.2 °F 12.7 °F 1023.6 in Calm     80 % 0.0 in
15:30 16.2 °F 12.5 °F 1023.6 in Calm     79 % 0.0 in
15:35 16.3 °F 12.6 °F 1023.6 in ENE 5.6 mph 5.6 mph 79 % 0.0 in
15:40 16.3 °F 12.6 °F 1023.6 in ENE 5.6 mph 5.6 mph 79 % 0.0 in
15:45 16.2 °F 12.7 °F 1023.6 in ENE 5.6 mph 5.6 mph 80 % 0.0 in
15:46 16.2 °F 12.7 °F 1023.6 in ENE 6.4 mph 6.4 mph 80 % 0.0 in
15:48 16.1 °F 12.7 °F 1023.2 in ENE 5.6 mph 5.8 mph 80 % 0.0 in
15:51 16.1 °F 12.8 °F 1023.6 in ENE 5.6 mph 5.6 mph 81 % 0.0 in
15:56 15.9 °F 12.7 °F 1023.6 in ENE 7.4 mph 7.4 mph 81 % 0.0 in
15:58 15.9 °F 12.7 °F 1023.2 in ENE 7.4 mph 7.4 mph 81 % 0.0 in
16:03 15.9 °F 12.8 °F 1023.2 in ENE 5.6 mph 5.6 mph 82 % 0.0 in
16:10 15.9 °F 12.8 °F 1023.2 in ENE 7.4 mph 7.4 mph 82 % 0.0 in
16:15 15.9 °F 13.1 °F 1023.2 in ENE 7.4 mph 7.4 mph 83 % 0.0 in
16:16 15.9 °F 13.0 °F 1023.2 in ENE 8.0 mph 8.0 mph 83 % 0.0 in
16:21 15.9 °F 12.8 °F 1023.2 in ENE 8.0 mph 8.0 mph 82 % 0.0 in
16:22 15.9 °F 12.8 °F 1023.2 in ENE 7.4 mph 7.4 mph 82 % 0.0 in
16:23 15.9 °F 12.9 °F 1023.2 in ENE 8.0 mph 8.0 mph 82 % 0.0 in
16:27 16.0 °F 12.9 °F 1023.2 in ENE 11.1 mph 11.1 mph 82 % 0.0 in
16:28 16.1 °F 13.2 °F 1023.2 in ENE 11.1 mph 11.1 mph 83 % 0.0 in
16:29 16.2 °F 13.4 °F 1023.2 in ENE 11.1 mph 11.1 mph 84 % 0.0 in
16:34 16.2 °F 13.7 °F 1023.2 in ENE 11.1 mph 11.1 mph 85 % 0.0 in
16:36 16.2 °F 13.7 °F 1023.2 in ENE 11.1 mph 11.1 mph 85 % 0.0 in
16:41 16.1 °F 13.7 °F 1023.2 in ENE 7.4 mph 7.4 mph 86 % 0.0 in
16:42 16.0 °F 13.7 °F 1023.2 in ENE 8.0 mph 8.0 mph 86 % 0.0 in
16:44 16.0 °F 13.7 °F 1023.2 in ENE 8.0 mph 8.0 mph 86 % 0.0 in
16:47 15.9 °F 13.6 °F 1023.2 in ENE 7.4 mph 7.4 mph 86 % 0.0 in
16:49 15.9 °F 13.6 °F 1023.2 in ENE 5.6 mph 5.6 mph 86 % 0.0 in
16:50 15.9 °F 13.6 °F 1023.2 in ENE 7.4 mph 7.4 mph 86 % 0.0 in
16:55 15.8 °F 13.5 °F 1022.9 in ENE 11.3 mph 11.3 mph 86 % 0.0 in
17:01 15.9 °F 13.6 °F 1023.2 in ENE 11.3 mph 11.3 mph 86 % 0.0 in
17:06 16.0 °F 13.8 °F 1023.2 in ENE 14.8 mph 14.8 mph 87 % 0.0 in
17:11 16.0 °F 13.8 °F 1023.2 in ENE 13.0 mph 13.0 mph 87 % 0.0 in
17:14 16.0 °F 13.8 °F 1023.2 in ENE 13.0 mph 13.0 mph 87 % 0.0 in
17:19 16.0 °F 14.0 °F 1023.2 in ENE 13.0 mph 13.0 mph 88 % 0.0 in
17:23 16.1 °F 14.1 °F 1022.9 in ENE 16.7 mph 16.7 mph 88 % 0.0 in
17:24 16.1 °F 14.1 °F 1022.9 in East 16.7 mph 16.7 mph 88 % 0.0 in
17:27 16.1 °F 14.1 °F 1022.9 in ENE 14.8 mph 14.8 mph 88 % 0.0 in
17:30 16.1 °F 13.9 °F 1022.9 in NE 14.8 mph 14.8 mph 87 % 0.0 in
17:35 16.2 °F 14.0 °F 1022.9 in ENE 16.7 mph 16.7 mph 87 % 0.0 in
17:39 16.2 °F 14.0 °F 1023.2 in ENE 14.8 mph 14.8 mph 87 % 0.0 in
17:40 16.1 °F 13.9 °F 1023.2 in ENE 14.8 mph 14.8 mph 87 % 0.0 in
17:45 16.2 °F 14.1 °F 1023.2 in ENE 13.0 mph 13.0 mph 87 % 0.0 in
17:46 16.2 °F 14.1 °F 1023.2 in ENE 13.0 mph 13.0 mph 87 % 0.0 in
17:51 16.3 °F 14.1 °F 1023.2 in ENE 8.0 mph 8.0 mph 87 % 0.0 in
17:53 16.3 °F 13.9 °F 1023.2 in ENE 8.0 mph 8.0 mph 86 % 0.0 in
17:57 16.3 °F 14.0 °F 1023.2 in NE 7.4 mph 7.4 mph 86 % 0.0 in
17:58 16.3 °F 14.0 °F 1023.2 in NE 7.4 mph 7.4 mph 86 % 0.0 in
17:59 16.3 °F 14.0 °F 1023.2 in NE 6.4 mph 6.4 mph 86 % 0.0 in
18:04 16.4 °F 14.1 °F 1023.2 in NE 7.4 mph 7.4 mph 86 % 0.0 in
18:06 16.4 °F 13.8 °F 1023.2 in NE 5.6 mph 5.6 mph 85 % 0.0 in
18:11 16.5 °F 13.9 °F 1023.2 in NE 3.7 mph 3.7 mph 85 % 0.0 in
18:12 16.6 °F 14.0 °F 1023.2 in NE 5.6 mph 5.6 mph 85 % 0.0 in
18:17 16.6 °F 13.7 °F 1023.2 in NE 3.7 mph 3.7 mph 83 % 0.0 in
18:22 16.7 °F 13.6 °F 1022.9 in Calm     82 % 0.0 in
18:27 16.8 °F 13.6 °F 1023.2 in Calm     81 % 0.0 in
18:29 16.9 °F 13.6 °F 1022.9 in Calm     81 % 0.0 in
18:31 16.9 °F 13.7 °F 1023.2 in Calm     81 % 0.0 in
18:34 17.0 °F 13.5 °F 1022.9 in NE 5.6 mph 5.6 mph 80 % 0.0 in
18:35 17.1 °F 13.6 °F 1022.9 in NE 5.6 mph 5.6 mph 80 % 0.0 in
18:41 17.1 °F 13.4 °F 1022.9 in NE 3.7 mph 3.7 mph 79 % 0.0 in
18:42 17.1 °F 13.4 °F 1022.9 in NE 3.7 mph 3.7 mph 79 % 0.0 in
18:48 17.0 °F 13.3 °F 1022.9 in NE 5.6 mph 5.6 mph 79 % 0.0 in
18:53 16.9 °F 13.2 °F 1022.9 in Calm     79 % 0.0 in
18:58 16.9 °F 13.2 °F 1022.9 in Calm     79 % 0.0 in
19:00 16.9 °F 13.2 °F 1022.9 in Calm     79 % 0.0 in
19:05 16.7 °F 13.1 °F 1023.2 in Calm     79 % 0.0 in
19:07 16.7 °F 13.0 °F 1023.2 in Calm     79 % 0.0 in
19:12 16.7 °F 13.2 °F 1023.2 in Calm     80 % 0.0 in
19:16 16.7 °F 13.3 °F 1023.2 in Calm     80 % 0.0 in
19:21 16.7 °F 13.2 °F 1023.2 in NE 5.6 mph 5.6 mph 80 % 0.0 in
19:23 16.7 °F 13.2 °F 1023.2 in NE 5.6 mph 5.6 mph 80 % 0.0 in
19:28 16.5 °F 13.1 °F 1023.2 in NE 5.6 mph 5.6 mph 80 % 0.0 in
19:29 16.4 °F 13.0 °F 1023.2 in NE 5.6 mph 5.6 mph 80 % 0.0 in
19:34 16.4 °F 13.1 °F 1023.2 in NE 3.7 mph 3.7 mph 81 % 0.0 in
19:37 16.3 °F 13.1 °F 1023.2 in NE 3.7 mph 3.7 mph 81 % 0.0 in
19:39 16.3 °F 13.0 °F 1023.2 in NE 5.6 mph 5.6 mph 81 % 0.0 in
19:42 16.2 °F 12.9 °F 1023.2 in NE 3.7 mph 3.7 mph 81 % 0.0 in
19:45 16.2 °F 12.9 °F 1023.2 in NNE 6.4 mph 6.4 mph 81 % 0.0 in
19:48 16.1 °F 12.8 °F 1023.2 in NNE 5.6 mph 5.6 mph 81 % 0.0 in
19:53 15.9 °F 12.7 °F 1023.2 in NNE 5.6 mph 5.6 mph 81 % 0.0 in
19:54 15.9 °F 12.6 °F 1023.2 in Calm     81 % 0.0 in
19:59 15.8 °F 12.4 °F 1023.2 in NNE 5.6 mph 5.6 mph 80 % 0.0 in
20:01 15.8 °F 12.3 °F 1023.2 in NNE 4.8 mph 4.8 mph 80 % 0.0 in
20:06 15.6 °F 12.1 °F 1023.2 in North 6.4 mph 6.4 mph 80 % 0.0 in
20:11 15.5 °F 12.3 °F 1023.2 in North 1.9 mph   81 % 0.0 in
20:13 15.6 °F 12.3 °F 1023.2 in Calm     81 % 0.0 in
20:18 15.5 °F 12.3 °F 1023.2 in North 5.6 mph 5.6 mph 81 % 0.0 in
20:19 15.4 °F 12.2 °F 1023.2 in North 5.6 mph 5.6 mph 81 % 0.0 in
20:23 15.3 °F 12.1 °F 1023.2 in North 6.4 mph 6.4 mph 81 % 0.0 in
20:24 15.3 °F 11.8 °F 1023.2 in North 8.0 mph 8.0 mph 80 % 0.0 in
20:29 15.0 °F 11.8 °F 1023.2 in NNW 7.4 mph 7.4 mph 81 % 0.0 in
20:32 14.9 °F 11.7 °F 1023.2 in NNW 3.7 mph 3.7 mph 81 % 0.0 in
20:37 14.8 °F 11.6 °F 1023.2 in NNW 3.7 mph 3.7 mph 81 % 0.0 in
20:38 14.8 °F 11.6 °F 1023.2 in NNW 3.7 mph 3.7 mph 81 % 0.0 in
20:43 14.9 °F 11.8 °F 1023.2 in Calm     82 % 0.0 in
20:44 14.9 °F 11.9 °F 1023.2 in Calm     82 % 0.0 in
20:47 14.9 °F 11.9 °F 1023.2 in NNW 4.8 mph 4.8 mph 82 % 0.0 in
20:51 14.9 °F 11.9 °F 1023.2 in North 6.4 mph 6.4 mph 82 % 0.0 in
20:53 14.8 °F 11.8 °F 1023.2 in North 5.6 mph 5.6 mph 82 % 0.0 in
20:58 14.8 °F 11.8 °F 1023.2 in North 5.6 mph 5.6 mph 82 % 0.0 in
21:00 14.8 °F 11.9 °F 1023.2 in North 5.6 mph 5.6 mph 83 % 0.0 in
21:05 14.8 °F 11.8 °F 1023.2 in North 6.4 mph 6.4 mph 82 % 0.0 in
21:10 14.8 °F 11.8 °F 1023.2 in North 5.6 mph 5.6 mph 82 % 0.0 in
21:11 14.8 °F 11.9 °F 1023.2 in North 6.4 mph 6.4 mph 83 % 0.0 in
21:12 14.8 °F 11.7 °F 1023.2 in North 9.7 mph 9.7 mph 82 % 0.0 in
21:16 14.8 °F 11.9 °F 1023.2 in NNE 7.4 mph 7.4 mph 83 % 0.0 in
21:18 14.8 °F 11.9 °F 1023.2 in NNE 5.6 mph 5.6 mph 83 % 0.0 in
21:23 14.8 °F 11.9 °F 1023.2 in NNE 7.4 mph 7.4 mph 83 % 0.0 in
21:26 14.7 °F 11.6 °F 1023.2 in North 9.3 mph 9.3 mph 82 % 0.0 in
21:31 14.7 °F 11.8 °F 1023.2 in North 8.0 mph 8.0 mph 83 % 0.0 in
21:36 14.7 °F 11.9 °F 1023.2 in North 5.6 mph 5.6 mph 83 % 0.0 in
21:38 14.7 °F 11.7 °F 1023.2 in North 6.4 mph 6.4 mph 82 % 0.0 in
21:40 14.7 °F 11.7 °F 1023.2 in North 5.6 mph 5.6 mph 82 % 0.0 in
21:44 14.7 °F 11.7 °F 1023.2 in NNW 9.3 mph 9.3 mph 82 % 0.0 in
21:49 14.8 °F 11.3 °F 1023.2 in North 7.4 mph 7.4 mph 80 % 0.0 in
21:54 14.8 °F 11.2 °F 1023.2 in North 6.4 mph 6.4 mph 79 % 0.0 in
21:55 14.7 °F 11.1 °F 1023.2 in North 5.6 mph 5.6 mph 79 % 0.0 in
22:01 14.8 °F 11.1 °F 1023.2 in North 7.4 mph 7.4 mph 78 % 0.0 in
22:06 14.9 °F 10.9 °F 1023.2 in North 7.4 mph 7.4 mph 77 % 0.0 in
22:09 15.0 °F 11.0 °F 1023.2 in NNW 5.6 mph 5.6 mph 77 % 0.0 in
22:21 15.2 °F 10.8 °F 1023.2 in NNW 5.6 mph 5.6 mph 75 % 0.0 in
22:28 15.2 °F 10.6 °F 1023.2 in NNW 1.9 mph 1.9 mph 74 % 0.0 in
22:30 15.2 °F 10.6 °F 1023.2 in NNW 1.6 mph 4.8 mph 74 % 0.0 in
22:31 15.2 °F 10.6 °F 1023.2 in NNW 5.6 mph 5.6 mph 74 % 0.0 in
22:32 15.2 °F 10.6 °F 1023.2 in NNW 5.6 mph 5.6 mph 74 % 0.0 in
22:34 15.2 °F 10.6 °F 1023.2 in NNW 5.6 mph 5.6 mph 74 % 0.0 in
22:35 15.2 °F 10.6 °F 1023.2 in NNW 5.6 mph 5.6 mph 74 % 0.0 in
22:36 15.3 °F 10.7 °F 1023.2 in NNW 5.6 mph 5.6 mph 74 % 0.0 in
22:38 15.3 °F 10.7 °F 1023.2 in NNW 5.6 mph 5.6 mph 74 % 0.0 in
22:42 15.3 °F 10.5 °F 1023.2 in NW 5.6 mph 5.6 mph 73 % 0.0 in
22:43 15.3 °F 10.5 °F 1023.2 in NW 5.6 mph 5.6 mph 73 % 0.0 in
22:44 15.3 °F 10.5 °F 1023.2 in NW 7.4 mph 7.4 mph 73 % 0.0 in
22:47 15.4 °F 10.6 °F 1023.2 in NW 7.4 mph 7.4 mph 73 % 0.0 in
22:48 15.4 °F 10.6 °F 1022.9 in NW 7.4 mph 7.4 mph 73 % 0.0 in
22:49 15.4 °F 10.6 °F 1022.9 in NW 7.4 mph 7.4 mph 73 % 0.0 in
22:50 15.4 °F 10.6 °F 1022.9 in NW 8.0 mph 8.0 mph 73 % 0.0 in
22:52 15.4 °F 10.6 °F 1022.9 in NW 9.3 mph 9.3 mph 73 % 0.0 in
22:53 15.3 °F 10.5 °F 1022.9 in NW 5.6 mph 5.6 mph 73 % 0.0 in
22:57 15.2 °F 10.4 °F 1022.9 in NW 5.6 mph 5.6 mph 73 % 0.0 in
23:01 14.8 °F 10.1 °F 1022.9 in NW 5.6 mph 5.6 mph 73 % 0.0 in
23:07 14.5 °F 10.1 °F 1022.9 in NNW 7.4 mph 7.4 mph 75 % 0.0 in
23:12 14.3 °F 10.1 °F 1022.9 in NNW 9.3 mph 9.3 mph 76 % 0.0 in
23:17 13.9 °F 10.0 °F 1022.9 in North 14.8 mph 14.8 mph 77 % 0.0 in
23:18 13.9 °F 10.0 °F 1022.9 in North 14.8 mph 14.8 mph 77 % 0.0 in
23:23 13.8 °F 10.0 °F 1022.9 in North 11.1 mph 11.1 mph 78 % 0.0 in
23:28 13.7 °F 9.9 °F 1022.6 in North 9.3 mph 9.3 mph 78 % 0.0 in
23:33 13.7 °F 9.9 °F 1022.9 in NNW 9.7 mph 9.7 mph 78 % 0.0 in
23:34 13.7 °F 9.9 °F 1022.9 in NNW 7.4 mph 7.4 mph 78 % 0.0 in
23:39 13.7 °F 10.1 °F 1022.9 in North 7.4 mph 7.4 mph 79 % 0.0 in
23:41 13.6 °F 10.1 °F 1022.9 in North 9.3 mph 9.3 mph 79 % 0.0 in
23:46 13.6 °F 10.0 °F 1022.9 in North 9.3 mph 9.3 mph 79 % 0.0 in
23:47 13.6 °F 10.0 °F 1022.9 in North 9.3 mph 9.3 mph 79 % 0.0 in
23:52 13.5 °F 9.9 °F 1022.6 in NNW 8.0 mph 8.0 mph 79 % 0.0 in
23:55 13.4 °F 9.9 °F 1022.6 in North 5.6 mph 5.6 mph 79 % 0.0 in
Puerto Banus, Marbella
Elogios de Weather Underground - 2.75 mb

Guión original por  Jim McMurry - jmcmurry@mwt.net Adaptado para la plantilla por  Wim van der Kuil - Leuven-Template.eu

Usted encontrará nuestra información del tiempo también en:

Weather Underground

Iberian Peninsula Weather Network